createdAt,value
2019-04-16T00:00:00.901Z,18.90
2019-04-16T00:02:28.653Z,18.33
2019-04-16T00:04:58.247Z,16.93
2019-04-16T00:07:17.052Z,18.03
2019-04-16T00:09:32.571Z,18.50
2019-04-16T00:11:54.344Z,19.40
2019-04-16T00:14:07.275Z,19.27
2019-04-16T00:16:18.154Z,16.50
2019-04-16T00:18:29.024Z,18.70
2019-04-16T00:20:47.621Z,18.00
2019-04-16T00:23:12.477Z,17.47
2019-04-16T00:25:23.350Z,21.27
2019-04-16T00:27:34.213Z,16.17
2019-04-16T00:29:45.054Z,19.57
2019-04-16T00:31:57.349Z,16.87
2019-04-16T00:34:08.593Z,19.30
2019-04-16T00:36:19.465Z,15.47
2019-04-16T00:38:40.626Z,17.77
2019-04-16T00:40:43.045Z,17.50
2019-04-16T00:42:53.938Z,18.27
2019-04-16T00:45:06.197Z,21.27
2019-04-16T00:47:17.087Z,17.57
2019-04-16T00:49:27.924Z,17.37
2019-04-16T00:51:38.857Z,20.83
2019-04-16T00:53:49.718Z,18.37
2019-04-16T00:56:00.693Z,22.10
2019-04-16T00:58:11.762Z,21.87
2019-04-16T01:00:22.586Z,19.83
2019-04-16T01:02:33.543Z,19.63
2019-04-16T01:04:44.509Z,19.13
2019-04-16T01:06:55.445Z,18.97
2019-04-16T01:09:06.411Z,19.10
2019-04-16T01:11:17.342Z,19.67
2019-04-16T01:13:28.194Z,18.50
2019-04-16T01:15:39.038Z,19.40
2019-04-16T01:17:50.006Z,21.60
2019-04-16T01:20:00.988Z,19.97
2019-04-16T01:22:15.700Z,19.07
2019-04-16T01:24:24.599Z,17.80
2019-04-16T01:26:35.429Z,18.30
2019-04-16T01:28:48.211Z,21.03
2019-04-16T01:31:10.063Z,20.20
2019-04-16T01:33:40.657Z,20.43
2019-04-16T01:35:59.712Z,22.20
2019-04-16T01:38:27.688Z,17.93
2019-04-16T01:40:41.838Z,18.37
2019-04-16T01:42:54.591Z,16.73
2019-04-16T01:45:06.143Z,23.43
2019-04-16T01:47:17.023Z,19.57
2019-04-16T01:49:27.882Z,17.83
2019-04-16T01:51:38.732Z,18.17
2019-04-16T01:53:52.274Z,18.17
2019-04-16T01:56:02.619Z,20.33
2019-04-16T01:58:13.521Z,19.27
2019-04-16T02:00:24.493Z,19.30
2019-04-16T02:02:35.339Z,20.23
2019-04-16T02:04:48.521Z,21.70
2019-04-16T02:06:59.270Z,18.67
2019-04-16T02:09:21.955Z,19.03
2019-04-16T02:11:23.036Z,18.37
2019-04-16T02:13:33.868Z,18.57
2019-04-16T02:15:44.846Z,19.70
2019-04-16T02:17:58.793Z,20.13
2019-04-16T02:20:08.648Z,20.33
2019-04-16T02:22:19.494Z,21.53
2019-04-16T02:24:30.375Z,20.83
2019-04-16T02:26:41.322Z,19.70
2019-04-16T02:28:52.176Z,19.73
2019-04-16T02:31:03.130Z,21.33
2019-04-16T02:33:13.970Z,20.73
2019-04-16T02:35:24.946Z,20.57
2019-04-16T02:37:37.341Z,20.37
2019-04-16T02:39:49.415Z,21.73
2019-04-16T02:42:00.895Z,19.20
2019-04-16T02:44:16.572Z,20.60
2019-04-16T02:46:30.868Z,21.83
2019-04-16T02:48:37.449Z,20.47
2019-04-16T02:50:52.937Z,18.27
2019-04-16T02:53:24.512Z,20.40
2019-04-16T02:55:48.804Z,20.40
2019-04-16T02:58:04.509Z,19.70
2019-04-16T03:00:18.515Z,20.03
2019-04-16T03:02:31.272Z,19.40
2019-04-16T03:04:44.127Z,22.80
2019-04-16T03:06:55.091Z,20.27
2019-04-16T03:09:09.182Z,20.33
2019-04-16T03:11:18.677Z,20.30
2019-04-16T03:13:29.628Z,17.47
2019-04-16T03:15:51.213Z,18.83
2019-04-16T03:18:02.301Z,20.90
2019-04-16T03:20:15.825Z,18.57
2019-04-16T03:22:26.664Z,19.10
2019-04-16T03:24:40.088Z,21.13
2019-04-16T03:26:51.266Z,19.33
2019-04-16T03:29:02.205Z,20.30
2019-04-16T03:31:19.350Z,23.33
2019-04-16T03:33:25.804Z,24.40
2019-04-16T03:35:36.745Z,19.80
2019-04-16T03:37:47.600Z,21.30
2019-04-16T03:39:59.054Z,19.07
2019-04-16T03:42:09.916Z,19.97
2019-04-16T03:44:20.962Z,19.60
2019-04-16T03:46:31.954Z,21.77
2019-04-16T03:48:43.009Z,27.10
2019-04-16T03:50:53.838Z,23.07
2019-04-16T03:53:04.703Z,25.00
2019-04-16T03:55:15.575Z,19.70
2019-04-16T03:57:26.531Z,19.90
2019-04-16T03:59:40.083Z,20.27
2019-04-16T04:01:50.149Z,24.17
2019-04-16T04:04:01.091Z,31.83
2019-04-16T04:06:11.951Z,22.37
2019-04-16T04:08:23.229Z,21.83
2019-04-16T04:10:36.871Z,20.17
2019-04-16T04:12:46.873Z,16.63
2019-04-16T04:14:57.727Z,19.23
2019-04-16T04:17:08.800Z,24.23
2019-04-16T04:19:19.648Z,22.57
2019-04-16T04:21:30.522Z,22.77
2019-04-16T04:23:41.476Z,24.37
2019-04-16T04:25:52.308Z,21.97
2019-04-16T04:28:03.319Z,19.87
2019-04-16T04:30:15.455Z,21.47
2019-04-16T04:32:26.318Z,20.20
2019-04-16T04:34:37.171Z,18.57
2019-04-16T04:36:48.002Z,20.43
2019-04-16T04:38:58.868Z,23.07
2019-04-16T04:41:09.817Z,21.23
2019-04-16T04:43:20.673Z,20.63
2019-04-16T04:45:31.534Z,20.00
2019-04-16T04:47:42.395Z,20.07
2019-04-16T04:49:53.225Z,19.67
2019-04-16T04:52:04.157Z,22.80
2019-04-16T04:54:15.016Z,22.20
2019-04-16T04:56:27.956Z,18.57
2019-04-16T04:58:38.901Z,18.80
2019-04-16T05:00:49.839Z,19.90
2019-04-16T05:03:00.694Z,19.67
2019-04-16T05:05:16.166Z,18.33
2019-04-16T05:07:29.046Z,22.73
2019-04-16T05:09:39.758Z,20.13
2019-04-16T05:11:50.610Z,18.77
2019-04-16T05:14:01.515Z,20.07
2019-04-16T05:16:12.394Z,18.80
2019-04-16T05:18:23.276Z,19.27
2019-04-16T05:20:34.105Z,19.43
2019-04-16T05:22:45.041Z,17.80
2019-04-16T05:25:00.832Z,20.37
2019-04-16T05:27:09.449Z,17.63
2019-04-16T05:29:20.414Z,20.10
2019-04-16T05:31:31.358Z,17.40
2019-04-16T05:33:42.217Z,17.57
2019-04-16T05:35:53.074Z,20.27
2019-04-16T05:38:04.011Z,20.53
2019-04-16T05:40:14.990Z,17.70
2019-04-16T05:42:26.370Z,17.47
2019-04-16T05:44:37.393Z,17.87
2019-04-16T05:46:48.234Z,18.30
2019-04-16T05:48:59.172Z,18.30
2019-04-16T05:51:10.054Z,18.87
2019-04-16T05:53:20.904Z,19.37
2019-04-16T05:55:36.774Z,17.70
2019-04-16T05:57:57.974Z,19.63
2019-04-16T06:00:11.336Z,20.37
2019-04-16T06:02:24.095Z,17.57
2019-04-16T06:04:34.994Z,18.33
2019-04-16T06:06:45.831Z,19.73
2019-04-16T06:08:56.782Z,18.97
2019-04-16T06:11:07.745Z,18.07
2019-04-16T06:13:20.499Z,21.47
2019-04-16T06:15:35.811Z,18.23
2019-04-16T06:17:50.683Z,19.07
2019-04-16T06:20:09.741Z,20.30
2019-04-16T06:22:25.436Z,19.80
2019-04-16T06:24:40.048Z,19.73
2019-04-16T06:27:10.176Z,22.87
2019-04-16T06:29:29.013Z,16.40
2019-04-16T06:31:40.874Z,19.30
2019-04-16T06:34:02.731Z,20.27
2019-04-16T06:36:24.353Z,21.03
2019-04-16T06:38:44.886Z,21.10
2019-04-16T06:41:09.656Z,21.17
2019-04-16T06:43:25.119Z,20.07
2019-04-16T06:45:39.915Z,26.07
2019-04-16T06:47:52.691Z,18.53
2019-04-16T06:50:31.179Z,20.50
2019-04-16T06:52:38.523Z,20.13
2019-04-16T06:54:54.097Z,20.63
2019-04-16T06:57:09.660Z,21.07
2019-04-16T06:59:21.774Z,21.90
2019-04-16T07:01:36.968Z,23.00
2019-04-16T07:03:59.779Z,23.47
2019-04-16T07:06:21.879Z,21.37
2019-04-16T07:08:51.574Z,27.80
2019-04-16T07:11:03.427Z,24.93
2019-04-16T07:13:14.391Z,28.37
2019-04-16T07:15:28.250Z,30.10
2019-04-16T07:17:40.490Z,28.57
2019-04-16T07:19:51.023Z,31.60
2019-04-16T07:22:01.977Z,26.70
2019-04-16T07:24:12.922Z,26.77
2019-04-16T07:26:23.974Z,27.93
2019-04-16T07:28:58.527Z,27.33
2019-04-16T07:31:14.872Z,26.37
2019-04-16T07:33:43.033Z,25.70
2019-04-16T07:35:55.969Z,28.70
2019-04-16T07:38:11.418Z,26.80
2019-04-16T07:40:40.930Z,25.43
2019-04-16T07:42:58.038Z,24.90
2019-04-16T07:45:20.877Z,26.30
2019-04-16T07:47:33.626Z,26.27
2019-04-16T07:49:52.539Z,22.80
2019-04-16T07:52:11.732Z,21.77
2019-04-16T07:54:38.294Z,22.10
2019-04-16T07:56:50.456Z,21.87
2019-04-16T07:59:01.863Z,20.83
2019-04-16T08:01:16.264Z,23.70
2019-04-16T08:03:26.881Z,20.83
2019-04-16T08:05:41.135Z,21.73
2019-04-16T08:07:52.909Z,23.10
2019-04-16T08:10:04.356Z,20.70
2019-04-16T08:12:29.462Z,22.00
2019-04-16T08:14:27.991Z,21.03
2019-04-16T08:16:47.037Z,21.33
2019-04-16T08:18:51.721Z,21.73
2019-04-16T08:21:10.228Z,21.37
2019-04-16T08:23:32.589Z,22.97
2019-04-16T08:25:43.561Z,23.03
2019-04-16T08:27:55.027Z,23.03
2019-04-16T08:30:08.280Z,20.80
2019-04-16T08:32:19.123Z,22.10
2019-04-16T08:34:30.065Z,22.87
2019-04-16T08:36:40.956Z,21.47
2019-04-16T08:38:51.823Z,22.50
2019-04-16T08:41:02.963Z,22.97
2019-04-16T08:43:13.793Z,21.83
2019-04-16T08:45:24.710Z,23.30
2019-04-16T08:47:35.677Z,22.70
2019-04-16T08:49:46.560Z,22.37
2019-04-16T08:51:57.549Z,24.17
2019-04-16T08:54:08.497Z,23.70
2019-04-16T08:56:19.379Z,26.13
2019-04-16T08:58:30.313Z,24.17
2019-04-16T09:00:46.010Z,25.93
2019-04-16T09:02:57.570Z,24.80
2019-04-16T09:05:11.264Z,25.23
2019-04-16T09:07:39.476Z,27.33
2019-04-16T09:09:56.953Z,23.17
2019-04-16T09:12:08.929Z,22.57
2019-04-16T09:14:20.797Z,25.73
2019-04-16T09:16:33.932Z,26.07
2019-04-16T09:18:52.417Z,23.10
2019-04-16T09:21:03.571Z,25.63
2019-04-16T09:23:14.448Z,22.83
2019-04-16T09:25:45.674Z,24.20
2019-04-16T09:28:00.756Z,21.50
2019-04-16T09:30:18.162Z,24.47
2019-04-16T09:32:31.007Z,23.20
2019-04-16T09:35:08.851Z,23.30
2019-04-16T09:37:35.789Z,22.13
2019-04-16T09:39:50.937Z,22.27
2019-04-16T09:42:02.230Z,22.80
2019-04-16T09:44:13.093Z,27.60
2019-04-16T09:46:49.117Z,27.10
2019-04-16T09:48:36.995Z,25.50
2019-04-16T09:50:48.103Z,25.67
2019-04-16T09:53:01.798Z,26.63
2019-04-16T09:55:12.232Z,24.30
2019-04-16T09:57:24.814Z,23.83
2019-04-16T09:59:44.718Z,23.40
2019-04-16T10:01:58.369Z,22.70
2019-04-16T10:04:14.200Z,24.77
2019-04-16T10:06:25.136Z,23.67
2019-04-16T10:08:36.023Z,24.80
2019-04-16T10:10:46.879Z,26.17
2019-04-16T10:12:57.730Z,25.37
2019-04-16T10:15:08.812Z,23.40
2019-04-16T10:17:19.691Z,24.37
2019-04-16T10:19:30.526Z,24.07
2019-04-16T10:21:41.459Z,25.67
2019-04-16T10:24:06.349Z,27.47
2019-04-16T10:26:17.336Z,26.37
2019-04-16T10:28:30.124Z,22.17
2019-04-16T10:30:45.657Z,24.67
2019-04-16T10:32:56.470Z,22.47
2019-04-16T10:35:07.415Z,22.93
2019-04-16T10:37:18.271Z,24.80
2019-04-16T10:39:33.791Z,23.20
2019-04-16T10:42:01.614Z,24.77
2019-04-16T10:44:17.352Z,23.27
2019-04-16T10:46:36.202Z,24.77
2019-04-16T10:48:51.665Z,21.50
2019-04-16T10:51:07.293Z,22.67
2019-04-16T10:53:20.088Z,20.47
2019-04-16T10:55:49.480Z,15.27
2019-04-16T10:58:14.197Z,20.30
2019-04-16T11:00:27.030Z,18.90
2019-04-16T11:02:48.809Z,19.83
2019-04-16T11:05:04.456Z,18.70
2019-04-16T11:07:23.846Z,18.53
2019-04-16T11:09:34.830Z,17.57
2019-04-16T11:11:46.149Z,16.67
2019-04-16T11:14:00.041Z,19.77
2019-04-16T11:16:11.887Z,18.07
2019-04-16T11:18:22.687Z,19.90
2019-04-16T11:20:33.669Z,17.87
2019-04-16T11:22:44.534Z,18.40
2019-04-16T11:24:55.496Z,21.33
2019-04-16T11:27:06.442Z,20.47
2019-04-16T11:29:17.316Z,18.03
2019-04-16T11:31:28.477Z,20.53
2019-04-16T11:33:39.333Z,21.00
2019-04-16T11:35:53.193Z,21.93
2019-04-16T11:38:03.203Z,20.03
2019-04-16T11:40:14.697Z,18.17
2019-04-16T11:42:25.580Z,18.10
2019-04-16T11:44:36.560Z,18.67
2019-04-16T11:46:47.622Z,22.70
2019-04-16T11:48:58.609Z,21.33
2019-04-16T11:51:09.568Z,18.47
2019-04-16T11:53:20.548Z,17.63
2019-04-16T11:55:31.619Z,19.93
2019-04-16T11:57:42.496Z,17.27
2019-04-16T12:00:06.035Z,18.17
2019-04-16T12:02:20.164Z,15.83
2019-04-16T12:04:55.846Z,21.13
2019-04-16T12:07:18.194Z,17.63
2019-04-16T12:09:47.826Z,19.40
2019-04-16T12:12:03.322Z,19.23
2019-04-16T12:14:32.384Z,16.73
2019-04-16T12:16:52.026Z,18.97
2019-04-16T12:19:22.118Z,16.73
2019-04-16T12:21:51.456Z,22.37
2019-04-16T12:24:20.957Z,18.80
2019-04-16T12:26:36.416Z,16.73
2019-04-16T12:28:55.224Z,17.53
2019-04-16T12:31:07.957Z,19.40
2019-04-16T12:33:20.745Z,17.43
2019-04-16T12:35:45.745Z,17.13
2019-04-16T12:38:13.105Z,17.93
2019-04-16T12:40:25.668Z,15.97
2019-04-16T12:42:44.230Z,16.70
2019-04-16T12:45:09.552Z,14.03
2019-04-16T12:47:22.772Z,15.00
2019-04-16T12:49:44.472Z,14.90
2019-04-16T12:51:57.234Z,16.10
2019-04-16T12:54:26.779Z,12.40
2019-04-16T12:56:48.358Z,15.00
2019-04-16T12:59:06.954Z,15.00
2019-04-16T13:01:25.497Z,16.60
2019-04-16T13:03:52.700Z,15.23
2019-04-16T13:06:07.949Z,17.77
2019-04-16T13:08:29.663Z,19.07
2019-04-16T13:10:48.774Z,17.10
2019-04-16T13:13:01.549Z,16.80
2019-04-16T13:15:30.792Z,15.53
2019-04-16T13:17:58.588Z,14.30
2019-04-16T13:20:29.496Z,14.57
2019-04-16T13:22:45.740Z,12.70
2019-04-16T13:25:05.023Z,14.67
2019-04-16T13:27:17.822Z,12.30
2019-04-16T13:29:30.571Z,13.77
2019-04-16T13:31:41.573Z,13.47
2019-04-16T13:33:52.538Z,13.97
2019-04-16T13:36:03.607Z,16.57
2019-04-16T13:38:16.484Z,19.70
2019-04-16T13:40:27.437Z,16.73
2019-04-16T13:42:38.283Z,20.23
2019-04-16T13:45:17.217Z,19.77
2019-04-16T13:47:18.982Z,21.93
2019-04-16T13:49:40.606Z,19.90
2019-04-16T13:51:51.527Z,18.93
2019-04-16T13:54:21.063Z,20.43
2019-04-16T13:56:36.550Z,19.53
2019-04-16T13:59:01.567Z,17.17
2019-04-16T14:01:17.057Z,21.50
2019-04-16T14:03:27.906Z,18.13
2019-04-16T14:05:42.527Z,16.40
2019-04-16T14:07:51.589Z,21.33
2019-04-16T14:10:04.575Z,23.17
2019-04-16T14:12:15.432Z,20.03
2019-04-16T14:14:26.299Z,20.60
2019-04-16T14:16:37.151Z,18.90
2019-04-16T14:18:48.086Z,23.00
2019-04-16T14:20:58.970Z,20.07
2019-04-16T14:23:09.931Z,18.43
2019-04-16T14:25:20.997Z,20.20
2019-04-16T14:27:31.891Z,19.87
2019-04-16T14:29:42.756Z,22.97
2019-04-16T14:31:53.824Z,23.50
2019-04-16T14:34:06.738Z,20.17
2019-04-16T14:36:17.699Z,18.70
2019-04-16T14:38:36.234Z,18.47
2019-04-16T14:40:47.135Z,22.60
2019-04-16T14:42:58.668Z,20.67
2019-04-16T14:45:23.895Z,24.33
2019-04-16T14:47:38.010Z,22.00
2019-04-16T14:49:47.753Z,23.97
2019-04-16T14:52:01.972Z,20.60
2019-04-16T14:54:15.218Z,22.30
2019-04-16T14:56:30.725Z,21.80
2019-04-16T14:58:49.462Z,20.07
2019-04-16T15:01:14.399Z,23.57
2019-04-16T15:03:33.314Z,23.30
2019-04-16T15:05:47.687Z,19.90
2019-04-16T15:08:17.253Z,19.67
2019-04-16T15:10:45.107Z,19.67
2019-04-16T15:12:57.905Z,21.07
2019-04-16T15:15:25.958Z,19.63
2019-04-16T15:17:41.474Z,22.70
2019-04-16T15:19:54.225Z,21.97
2019-04-16T15:22:23.540Z,18.13
2019-04-16T15:24:36.591Z,18.40
2019-04-16T15:27:06.156Z,20.90
2019-04-16T15:29:30.894Z,18.53
2019-04-16T15:31:43.766Z,20.30
2019-04-16T15:33:59.234Z,21.30
2019-04-16T15:36:24.014Z,19.77
2019-04-16T15:38:42.819Z,21.27
2019-04-16T15:41:13.208Z,19.00
2019-04-16T15:43:42.126Z,17.93
2019-04-16T15:46:09.618Z,21.50
2019-04-16T15:48:38.053Z,17.87
2019-04-16T15:50:56.638Z,19.03
2019-04-16T15:53:09.430Z,17.13
2019-04-16T15:55:31.091Z,23.83
2019-04-16T15:57:58.928Z,20.30
2019-04-16T16:00:27.311Z,20.63
2019-04-16T16:02:46.108Z,19.80
2019-04-16T16:04:58.956Z,18.73
2019-04-16T16:07:09.958Z,18.77
2019-04-16T16:09:40.900Z,21.30
2019-04-16T16:12:05.998Z,19.30
2019-04-16T16:14:16.961Z,15.17
2019-04-16T16:16:41.128Z,14.73
2019-04-16T16:18:40.788Z,12.27
2019-04-16T16:20:51.721Z,12.67
2019-04-16T16:23:02.981Z,12.57
2019-04-16T16:25:14.054Z,10.17
2019-04-16T16:27:25.123Z,12.17
2019-04-16T16:29:36.019Z,10.27
2019-04-16T16:31:46.874Z,11.47
2019-04-16T16:33:57.745Z,11.13
2019-04-16T16:36:08.580Z,11.97
2019-04-16T16:38:20.961Z,11.17
2019-04-16T16:40:32.105Z,8.80
2019-04-16T16:42:42.969Z,10.57
2019-04-16T16:44:53.844Z,10.07
2019-04-16T16:47:06.771Z,11.90
2019-04-16T16:49:17.654Z,8.83
2019-04-16T16:51:28.634Z,9.57
2019-04-16T16:53:41.648Z,11.27
2019-04-16T16:55:53.915Z,11.20
2019-04-16T16:58:24.720Z,10.63
2019-04-16T17:00:37.503Z,11.63
2019-04-16T17:02:50.294Z,12.93
2019-04-16T17:05:03.208Z,12.97
2019-04-16T17:07:17.446Z,12.67
2019-04-16T17:09:33.441Z,13.57
2019-04-16T17:11:44.390Z,11.70
2019-04-16T17:13:57.996Z,10.30
2019-04-16T17:16:13.521Z,13.20
2019-04-16T17:18:21.100Z,11.60
2019-04-16T17:20:32.055Z,11.27
2019-04-16T17:22:42.900Z,12.20
2019-04-16T17:24:53.802Z,13.23
2019-04-16T17:27:05.405Z,12.07
2019-04-16T17:29:16.251Z,10.20
2019-04-16T17:31:27.370Z,12.33
2019-04-16T17:33:38.358Z,10.60
2019-04-16T17:35:49.234Z,9.77
2019-04-16T17:38:02.802Z,10.33
2019-04-16T17:40:21.557Z,9.73
2019-04-16T17:42:37.660Z,11.90
2019-04-16T17:45:04.441Z,10.67
2019-04-16T17:47:33.840Z,9.07
2019-04-16T17:50:02.550Z,9.23
2019-04-16T17:52:13.534Z,11.03
2019-04-16T17:54:32.168Z,9.93
2019-04-16T17:57:01.643Z,9.20
2019-04-16T17:59:14.386Z,9.93
2019-04-16T18:01:30.156Z,10.27
2019-04-16T18:03:48.739Z,9.17
2019-04-16T18:06:07.690Z,8.70
2019-04-16T18:08:32.349Z,9.63
2019-04-16T18:10:50.875Z,9.77
2019-04-16T18:13:07.583Z,8.97
2019-04-16T18:15:20.509Z,8.87
2019-04-16T18:17:46.934Z,8.57
2019-04-16T18:20:09.325Z,10.00
2019-04-16T18:22:29.177Z,10.90
2019-04-16T18:24:42.068Z,8.23
2019-04-16T18:27:10.155Z,9.63
2019-04-16T18:29:22.949Z,9.17
2019-04-16T18:31:35.829Z,10.27
2019-04-16T18:33:48.646Z,8.53
2019-04-16T18:36:04.367Z,9.17
2019-04-16T18:38:19.065Z,9.63
2019-04-16T18:40:41.699Z,11.37
2019-04-16T18:43:00.581Z,11.77
2019-04-16T18:45:13.319Z,12.83
2019-04-16T18:47:44.265Z,10.87
2019-04-16T18:49:57.060Z,13.60
2019-04-16T18:52:07.980Z,11.77
2019-04-16T18:54:19.176Z,11.77
2019-04-16T18:56:30.016Z,13.67
2019-04-16T18:58:41.819Z,12.37
2019-04-16T19:00:54.875Z,10.20
2019-04-16T19:03:05.906Z,12.30
2019-04-16T19:05:16.767Z,12.13
2019-04-16T19:07:27.777Z,9.60
2019-04-16T19:09:38.636Z,10.07
2019-04-16T19:11:49.514Z,12.00
2019-04-16T19:14:00.483Z,11.53
2019-04-16T19:16:11.551Z,9.73
2019-04-16T19:18:22.527Z,10.83
2019-04-16T19:20:33.510Z,12.20
2019-04-16T19:22:46.515Z,11.50
2019-04-16T19:24:57.353Z,11.73
2019-04-16T19:27:08.429Z,11.03
2019-04-16T19:29:19.334Z,10.67
2019-04-16T19:31:30.321Z,12.37
2019-04-16T19:33:41.168Z,10.00
2019-04-16T19:35:52.293Z,13.53
2019-04-16T19:38:06.436Z,12.50
2019-04-16T19:40:18.948Z,12.23
2019-04-16T19:42:29.677Z,9.83
2019-04-16T19:44:40.730Z,10.60
2019-04-16T19:46:53.944Z,9.60
2019-04-16T19:49:04.880Z,9.83
2019-04-16T19:51:19.421Z,12.27
2019-04-16T19:53:28.968Z,9.90
2019-04-16T19:55:39.926Z,9.37
2019-04-16T19:57:51.099Z,8.33
2019-04-16T20:00:05.433Z,10.00
2019-04-16T20:02:16.624Z,10.40
2019-04-16T20:04:28.143Z,10.73
2019-04-16T20:06:39.319Z,11.20
2019-04-16T20:08:50.220Z,10.43
2019-04-16T20:11:01.199Z,11.83
2019-04-16T20:13:12.216Z,19.00
2019-04-16T20:15:23.452Z,10.80
2019-04-16T20:17:34.442Z,11.03
2019-04-16T20:19:57.640Z,13.37
2019-04-16T20:22:08.614Z,14.17
2019-04-16T20:24:19.574Z,15.63
2019-04-16T20:26:32.451Z,14.27
2019-04-16T20:28:45.365Z,13.20
2019-04-16T20:31:01.430Z,14.83
2019-04-16T20:33:09.143Z,16.23
2019-04-16T20:35:20.112Z,15.73
2019-04-16T20:37:31.093Z,15.37
2019-04-16T20:39:42.045Z,15.93
2019-04-16T20:41:55.268Z,16.50
2019-04-16T20:44:09.104Z,16.33
2019-04-16T20:46:18.416Z,14.97
2019-04-16T20:48:29.425Z,16.93
2019-04-16T20:50:40.376Z,15.60
2019-04-16T20:52:51.267Z,15.07
2019-04-16T20:55:02.839Z,17.30
2019-04-16T20:57:13.832Z,16.67
2019-04-16T20:59:24.698Z,17.87
2019-04-16T21:01:37.695Z,16.97
2019-04-16T21:04:05.027Z,15.70
2019-04-16T21:06:10.271Z,16.43
2019-04-16T21:08:24.201Z,15.43
2019-04-16T21:10:35.688Z,18.47
2019-04-16T21:12:46.974Z,15.63
2019-04-16T21:14:57.932Z,18.07
2019-04-16T21:17:08.901Z,16.63
2019-04-16T21:19:23.140Z,15.77
2019-04-16T21:21:32.530Z,16.57
2019-04-16T21:23:43.528Z,18.27
2019-04-16T21:25:54.367Z,15.07
2019-04-16T21:28:25.256Z,16.63
2019-04-16T21:30:36.514Z,14.77
2019-04-16T21:32:49.554Z,16.30
2019-04-16T21:35:08.501Z,15.80
2019-04-16T21:37:21.245Z,16.03
2019-04-16T21:39:37.000Z,16.93
2019-04-16T21:41:47.858Z,17.17
2019-04-16T21:43:58.736Z,18.23
2019-04-16T21:46:09.574Z,15.83
2019-04-16T21:48:20.472Z,16.90
2019-04-16T21:50:31.344Z,17.63
2019-04-16T21:52:42.193Z,17.77
2019-04-16T21:54:53.164Z,17.80
2019-04-16T21:57:04.335Z,14.70
2019-04-16T21:59:15.176Z,16.23
2019-04-16T22:01:28.023Z,16.10
2019-04-16T22:03:42.253Z,14.10
2019-04-16T22:05:51.647Z,16.30
2019-04-16T22:08:02.707Z,15.93
2019-04-16T22:10:13.786Z,16.27
2019-04-16T22:12:24.725Z,16.70
2019-04-16T22:14:35.628Z,16.33
2019-04-16T22:16:46.478Z,15.17
2019-04-16T22:18:57.422Z,15.33
2019-04-16T22:21:10.981Z,16.33
2019-04-16T22:23:21.010Z,15.30
2019-04-16T22:25:31.889Z,16.20
2019-04-16T22:27:42.746Z,14.87
2019-04-16T22:29:53.713Z,14.70
2019-04-16T22:32:04.562Z,19.17
2019-04-16T22:34:15.423Z,16.10
2019-04-16T22:36:26.371Z,17.23
2019-04-16T22:38:37.637Z,16.90
2019-04-16T22:40:56.598Z,16.17
2019-04-16T22:43:26.115Z,17.73
2019-04-16T22:45:57.217Z,17.00
2019-04-16T22:48:08.191Z,17.13
2019-04-16T22:50:19.080Z,17.10
2019-04-16T22:52:30.010Z,15.80
2019-04-16T22:54:40.984Z,17.50
2019-04-16T22:56:53.842Z,18.07
2019-04-16T22:59:06.586Z,17.20
2019-04-16T23:01:22.198Z,14.87
2019-04-16T23:03:33.039Z,17.30
2019-04-16T23:05:43.913Z,17.57
2019-04-16T23:07:54.763Z,17.73
2019-04-16T23:10:05.760Z,18.80
2019-04-16T23:12:16.583Z,17.03
2019-04-16T23:14:27.424Z,17.33
2019-04-16T23:16:41.864Z,16.90
2019-04-16T23:18:51.029Z,16.20
2019-04-16T23:21:01.894Z,15.13
2019-04-16T23:23:18.028Z,14.90
2019-04-16T23:25:27.448Z,16.90
2019-04-16T23:27:38.383Z,17.73
2019-04-16T23:29:49.206Z,19.43
2019-04-16T23:32:00.084Z,19.53
2019-04-16T23:34:10.914Z,15.23
2019-04-16T23:36:21.770Z,16.27
2019-04-16T23:38:32.602Z,16.07
2019-04-16T23:40:43.947Z,17.27
2019-04-16T23:43:03.381Z,15.93
2019-04-16T23:45:33.207Z,17.00
2019-04-16T23:47:48.749Z,17.67
2019-04-16T23:50:07.321Z,17.67
2019-04-16T23:52:20.078Z,15.97
2019-04-16T23:54:32.838Z,15.80
2019-04-16T23:56:54.689Z,15.23
2019-04-16T23:59:19.435Z,15.47
